Time;durP1;ratioP1;P1;durP2;ratioP2;P2;SDS_P1;SDS_P2;PMS_P1;PMS_P2;Temp;Humidity;BMP_temperature;BMP_pressure;BME280_temperature;BME280_humidity;BME280_pressure;Samples;Min_cycle;Max_cycle;Signal;HPM_P1;HPM_P2
2021/11/23 00:00:14;;;;;;;14.13;5.00;;;;;;;1.66;83.97;99682.67;1739858;81;21476;-69
2021/11/23 00:02:41;;;;;;;14.78;5.87;;;;;;;1.66;83.57;99682.67;1748371;81;21510;-68
2021/11/23 00:05:10;;;;;;;13.22;4.70;;;;;;;1.64;83.13;99678.05;1747224;81;21148;-68
2021/11/23 00:07:37;;;;;;;13.00;4.53;;;;;;;1.63;82.89;99679.94;1748331;81;20924;-68
2021/11/23 00:10:05;;;;;;;9.70;4.60;;;;;;;1.62;82.63;99675.60;1723023;81;21474;-68
2021/11/23 00:12:33;;;;;;;10.75;4.83;;;;;;;1.59;82.46;99672.59;1716975;81;20951;-68
2021/11/23 00:15:00;;;;;;;9.05;3.90;;;;;;;1.58;82.26;99668.24;1690495;84;21042;-68
2021/11/23 00:17:27;;;;;;;9.03;4.05;;;;;;;1.56;81.97;99674.44;1686662;84;21772;-68
2021/11/23 00:19:54;;;;;;;10.63;3.92;;;;;;;1.54;81.61;99672.52;1747825;81;20908;-68
2021/11/23 00:22:21;;;;;;;7.83;3.25;;;;;;;1.53;81.31;99684.42;1751131;81;21618;-68
2021/11/23 00:24:48;;;;;;;6.95;3.40;;;;;;;1.52;81.02;99686.84;1739235;82;20897;-69
2021/11/23 00:27:15;;;;;;;10.00;3.20;;;;;;;1.49;80.64;99687.34;1746696;81;20924;-69
2021/11/23 00:29:41;;;;;;;6.92;3.42;;;;;;;1.46;80.53;99691.38;1752851;81;21144;-70
2021/11/23 00:32:08;;;;;;;7.45;3.45;;;;;;;1.43;80.36;99682.95;1750505;81;20919;-69
2021/11/23 00:34:35;;;;;;;9.10;3.42;;;;;;;1.40;80.40;99678.86;1750145;81;20940;-69
2021/11/23 00:37:02;;;;;;;8.83;3.25;;;;;;;1.39;80.58;99676.41;1748503;81;20960;-69
2021/11/23 00:39:29;;;;;;;8.30;3.80;;;;;;;1.36;80.45;99675.02;1750791;81;21008;-69
2021/11/23 00:41:55;;;;;;;8.53;3.80;;;;;;;1.36;80.32;99684.48;1753588;81;21466;-69
2021/11/23 00:44:22;;;;;;;8.45;3.60;;;;;;;1.35;80.50;99682.85;1748365;81;20961;-69
2021/11/23 00:46:50;;;;;;;9.68;3.77;;;;;;;1.35;80.50;99680.15;1751152;81;20968;-69
2021/11/23 00:49:17;;;;;;;13.15;4.12;;;;;;;1.35;80.27;99687.45;1688495;84;20915;-69
2021/11/23 00:51:44;;;;;;;8.25;4.00;;;;;;;1.35;80.14;99688.80;1753648;81;20856;-69
2021/11/23 00:54:12;;;;;;;7.78;3.52;;;;;;;1.36;80.18;99685.02;1753614;81;21141;-69
2021/11/23 00:56:39;;;;;;;9.60;4.65;;;;;;;1.41;80.10;99691.84;1750944;81;21546;-69
2021/11/23 00:59:06;;;;;;;11.48;4.85;;;;;;;1.47;80.17;99689.48;1692790;84;20943;-69
2021/11/23 01:01:33;;;;;;;10.38;4.92;;;;;;;1.51;79.99;99698.20;1743433;81;20975;-69
2021/11/23 01:04:00;;;;;;;10.28;5.28;;;;;;;1.54;79.67;99694.17;1753628;81;21034;-69
2021/11/23 01:06:26;;;;;;;12.47;5.62;;;;;;;1.56;79.34;99695.55;1748786;81;22353;-69
2021/11/23 01:08:54;;;;;;;9.83;4.78;;;;;;;1.57;79.30;99699.89;1686218;84;21487;-69
2021/11/23 01:11:22;;;;;;;12.35;4.85;;;;;;;1.61;79.44;99704.27;1690743;84;20944;-69
2021/11/23 01:13:50;;;;;;;11.93;5.03;;;;;;;1.63;79.55;99710.24;1753656;81;20936;-69
2021/11/23 01:16:17;;;;;;;11.88;4.78;;;;;;;1.64;79.75;99711.34;1753378;81;20880;-69
2021/11/23 01:18:45;;;;;;;11.45;4.92;;;;;;;1.67;80.29;99705.14;1751823;81;21105;-70
2021/11/23 01:21:14;;;;;;;9.05;3.87;;;;;;;1.66;80.55;99715.15;1750857;81;20936;-70
2021/11/23 01:23:41;;;;;;;11.28;4.40;;;;;;;1.61;80.51;99716.45;1688878;84;20980;-70
2021/11/23 01:26:08;;;;;;;11.80;4.00;;;;;;;1.57;80.68;99719.37;1748932;81;21551;-71
2021/11/23 01:28:37;;;;;;;7.12;3.40;;;;;;;1.53;80.75;99717.70;1753074;81;21424;-70
2021/11/23 01:31:03;;;;;;;5.55;2.65;;;;;;;1.55;80.59;99725.57;1684065;84;21171;-70
2021/11/23 01:33:30;;;;;;;5.85;2.85;;;;;;;1.54;80.30;99719.34;1749960;81;20971;-71
2021/11/23 01:35:57;;;;;;;6.45;3.08;;;;;;;1.52;80.26;99719.31;1752371;81;20931;-71
2021/11/23 01:38:23;;;;;;;7.12;3.30;;;;;;;1.52;80.36;99727.42;1753523;81;20915;-71
2021/11/23 01:40:51;;;;;;;8.05;3.27;;;;;;;1.51;79.47;99723.91;1750751;81;20960;-71
2021/11/23 01:43:17;;;;;;;10.68;4.92;;;;;;;1.47;78.83;99724.13;1739057;81;21109;-71
2021/11/23 01:45:44;;;;;;;12.00;5.17;;;;;;;1.45;78.65;99722.73;1748990;81;21024;-71
2021/11/23 01:48:10;;;;;;;15.30;6.55;;;;;;;1.43;78.48;99721.64;1753733;81;20935;-71
2021/11/23 01:50:37;;;;;;;12.75;6.00;;;;;;;1.41;77.89;99714.31;1752304;81;21012;-71
2021/11/23 01:53:06;;;;;;;13.15;5.55;;;;;;;1.40;77.61;99722.14;1750243;81;20989;-70
2021/11/23 01:55:35;;;;;;;13.05;5.80;;;;;;;1.38;76.87;99728.87;1740537;82;21172;-70
2021/11/23 01:58:04;;;;;;;11.83;5.78;;;;;;;1.31;76.67;99720.94;1686278;85;20912;-69
2021/11/23 02:00:32;;;;;;;15.08;5.35;;;;;;;1.31;76.59;99726.34;1686504;84;20991;-69
2021/11/23 02:03:00;;;;;;;12.30;4.97;;;;;;;1.27;76.30;99726.03;1685983;84;21029;-70
2021/11/23 02:05:27;;;;;;;11.25;5.22;;;;;;;1.24;76.30;99721.13;1750579;81;20919;-70
2021/11/23 02:07:54;;;;;;;14.10;5.65;;;;;;;1.21;76.25;99731.08;1748194;81;21904;-69
2021/11/23 02:10:20;;;;;;;13.95;5.72;;;;;;;1.18;76.31;99720.77;1691367;84;21605;-69
2021/11/23 02:12:47;;;;;;;10.40;5.30;;;;;;;1.15;76.77;99717.24;1753716;81;20928;-69
2021/11/23 02:15:15;;;;;;;11.63;5.60;;;;;;;1.14;76.80;99722.90;1750694;81;21444;-69
2021/11/23 02:17:46;;;;;;;10.80;4.67;;;;;;;1.10;76.72;99723.93;1693917;84;20908;-71
2021/11/23 02:20:16;;;;;;;9.43;4.37;;;;;;;1.08;76.60;99718.48;1751337;81;21205;-69
2021/11/23 02:22:43;;;;;;;10.13;4.60;;;;;;;1.04;76.23;99719.52;1666001;84;21602;-69
2021/11/23 02:25:10;;;;;;;9.23;4.58;;;;;;;1.05;76.59;99718.98;1753491;81;21538;-69
2021/11/23 02:27:37;;;;;;;9.53;4.65;;;;;;;1.06;76.31;99720.09;1688827;84;21431;-69
2021/11/23 02:30:06;;;;;;;10.80;4.35;;;;;;;1.07;76.16;99724.42;1753577;81;21015;-69
2021/11/23 02:32:53;;;;;;;8.98;4.40;;;;;;;1.07;76.19;99721.73;1747679;81;20961;-68
2021/11/23 02:35:23;;;;;;;11.25;4.28;;;;;;;1.10;76.33;99727.17;1751505;81;21424;-69
2021/11/23 02:37:53;;;;;;;8.58;4.45;;;;;;;1.10;76.26;99729.34;1753634;81;21011;-69
2021/11/23 02:40:21;;;;;;;8.15;3.77;;;;;;;1.08;76.18;99732.83;1754183;81;21099;-68
2021/11/23 02:42:50;;;;;;;8.95;3.90;;;;;;;1.07;76.19;99733.08;1693896;84;20936;-70
2021/11/23 02:45:18;;;;;;;7.12;3.58;;;;;;;1.05;76.25;99736.56;1693693;84;21145;-69
2021/11/23 02:47:46;;;;;;;7.10;3.40;;;;;;;1.04;76.53;99738.98;1750805;81;20919;-68
2021/11/23 02:50:14;;;;;;;8.10;3.33;;;;;;;0.99;76.58;99743.24;1753652;81;21007;-70
2021/11/23 02:52:45;;;;;;;7.62;3.85;;;;;;;0.95;76.76;99748.04;1736998;81;20937;-70
2021/11/23 02:55:12;;;;;;;6.62;3.22;;;;;;;0.94;76.90;99743.70;1690414;84;21451;-70
2021/11/23 02:57:38;;;;;;;6.60;3.60;;;;;;;0.95;76.93;99746.16;1750629;81;21179;-70
2021/11/23 03:00:14;;;;;;;8.50;3.50;;;;;;;0.96;77.26;99742.39;1691971;84;21765;-69
2021/11/23 03:02:42;;;;;;;10.85;4.17;;;;;;;0.99;77.42;99746.48;1752880;81;20987;-71
2021/11/23 03:05:09;;;;;;;10.72;4.00;;;;;;;0.97;77.30;99748.08;1745937;81;21443;-69
2021/11/23 03:07:36;;;;;;;8.73;3.75;;;;;;;0.97;77.49;99748.08;1692479;84;20944;-69
2021/11/23 03:10:07;;;;;;;9.08;4.22;;;;;;;0.98;77.66;99748.90;1751183;81;21175;-69
2021/11/23 03:12:34;;;;;;;9.28;4.55;;;;;;;0.97;77.80;99754.02;1748552;81;20936;-69
2021/11/23 03:15:01;;;;;;;7.92;4.08;;;;;;;0.94;78.03;99758.56;1753242;81;21530;-70
2021/11/23 03:17:28;;;;;;;12.18;4.37;;;;;;;0.93;78.25;99759.63;1693172;84;20880;-70
2021/11/23 03:19:55;;;;;;;15.05;4.00;;;;;;;0.90;78.29;99758.77;1747180;81;20857;-70
2021/11/23 03:22:22;;;;;;;10.13;4.62;;;;;;;0.83;78.60;99762.17;1749986;81;21522;-70
2021/11/23 03:24:50;;;;;;;8.95;4.33;;;;;;;0.78;79.03;99758.86;1745246;81;20976;-70
2021/11/23 03:27:17;;;;;;;9.25;4.58;;;;;;;0.77;79.20;99769.92;1751433;81;20884;-71
2021/11/23 03:29:44;;;;;;;9.53;4.50;;;;;;;0.76;79.34;99765.05;1692373;84;21479;-70
2021/11/23 03:32:11;;;;;;;8.13;3.67;;;;;;;0.77;79.40;99763.98;1750518;81;20987;-70
2021/11/23 03:34:42;;;;;;;11.15;4.33;;;;;;;0.75;79.60;99765.29;1752172;81;39101;-70
2021/11/23 03:37:14;;;;;;;11.35;4.28;;;;;;;0.69;79.77;99765.74;1748118;81;21412;-70
2021/11/23 03:39:44;;;;;;;9.20;4.20;;;;;;;0.63;79.77;99760.78;1751422;81;20981;-71
2021/11/23 03:42:10;;;;;;;12.68;4.70;;;;;;;0.57;79.79;99760.45;1691525;84;20960;-70
2021/11/23 03:44:37;;;;;;;11.22;5.35;;;;;;;0.57;79.99;99754.22;1744913;81;20897;-70
2021/11/23 03:47:05;;;;;;;9.88;4.55;;;;;;;0.58;80.14;99762.05;1752451;81;22016;-70
2021/11/23 03:49:32;;;;;;;11.00;3.98;;;;;;;0.56;80.27;99761.51;1747420;81;20979;-71
2021/11/23 03:52:00;;;;;;;11.25;4.78;;;;;;;0.53;80.45;99761.18;1688854;84;21575;-70
2021/11/23 03:54:27;;;;;;;9.78;4.95;;;;;;;0.50;80.56;99763.84;1745895;81;20977;-70
2021/11/23 03:56:56;;;;;;;15.88;4.50;;;;;;;0.51;80.77;99763.30;1751846;81;21467;-70
2021/11/23 03:59:22;;;;;;;14.18;5.10;;;;;;;0.49;80.85;99765.44;1690266;84;21925;-70
2021/11/23 04:01:48;;;;;;;9.35;4.53;;;;;;;0.45;80.78;99775.91;1750950;81;20937;-70
2021/11/23 04:04:15;;;;;;;10.20;4.65;;;;;;;0.42;81.04;99768.82;1753104;81;20892;-70
2021/11/23 04:06:42;;;;;;;9.55;4.45;;;;;;;0.39;81.05;99766.08;1691466;84;21562;-69
2021/11/23 04:09:09;;;;;;;7.25;3.83;;;;;;;0.34;81.00;99770.04;1747782;81;20909;-69
2021/11/23 04:11:35;;;;;;;7.92;3.90;;;;;;;0.27;81.72;99768.02;1749771;81;21194;-69
2021/11/23 04:14:02;;;;;;;9.20;3.50;;;;;;;0.27;82.01;99770.72;1753491;81;20991;-69
2021/11/23 04:16:29;;;;;;;6.40;3.60;;;;;;;0.25;82.06;99771.50;1753783;81;21428;-70
2021/11/23 04:18:55;;;;;;;7.60;3.95;;;;;;;0.24;82.10;99773.37;1742386;81;21436;-70
2021/11/23 04:21:22;;;;;;;7.58;3.90;;;;;;;0.21;82.06;99767.64;1752593;81;20932;-69
2021/11/23 04:23:50;;;;;;;8.25;3.87;;;;;;;0.18;82.40;99768.94;1690716;84;21182;-70
2021/11/23 04:26:17;;;;;;;10.85;3.72;;;;;;;0.20;82.52;99764.66;1750867;81;20984;-70
2021/11/23 04:28:44;;;;;;;9.40;4.20;;;;;;;0.20;82.62;99764.13;1751839;81;21432;-70
2021/11/23 04:31:10;;;;;;;10.13;3.92;;;;;;;0.21;82.53;99762.23;1753429;81;21019;-70
2021/11/23 04:33:37;;;;;;;8.03;4.00;;;;;;;0.21;82.88;99762.23;1751950;81;21621;-72
2021/11/23 04:36:05;;;;;;;7.75;3.42;;;;;;;0.21;83.23;99758.19;1689733;84;21216;-72
2021/11/23 04:38:32;;;;;;;9.65;3.30;;;;;;;0.20;82.85;99759.25;1746628;81;21550;-73
2021/11/23 04:40:58;;;;;;;8.18;3.80;;;;;;;0.17;82.63;99761.09;1753489;81;21480;-73
2021/11/23 04:43:25;;;;;;;7.55;4.25;;;;;;;0.10;82.38;99758.53;1745469;81;20940;-72
2021/11/23 04:45:52;;;;;;;6.45;3.42;;;;;;;0.07;82.49;99757.67;1693211;84;20983;-73
2021/11/23 04:48:20;;;;;;;6.75;3.70;;;;;;;0.04;82.77;99758.69;1749057;81;21554;-73
2021/11/23 04:50:47;;;;;;;6.85;3.08;;;;;;;0.00;83.05;99755.11;1685825;84;21341;-70
2021/11/23 04:53:15;;;;;;;7.22;2.77;;;;;;;0.00;83.29;99758.38;1753567;81;20936;-70
2021/11/23 04:55:43;;;;;;;11.97;3.83;;;;;;;0.00;83.43;99759.16;1693230;84;20995;-71
2021/11/23 04:58:12;;;;;;;7.72;3.52;;;;;;;0.00;83.24;99753.77;1749227;81;20984;-71
2021/11/23 05:00:39;;;;;;;8.83;3.85;;;;;;;-0.08;82.96;99754.71;1689657;84;21132;-71
2021/11/23 05:03:05;;;;;;;11.80;5.17;;;;;;;-0.16;83.26;99747.00;1747250;81;21440;-71
2021/11/23 05:05:32;;;;;;;15.13;5.97;;;;;;;-0.22;83.54;99744.73;1693413;84;20999;-71
2021/11/23 05:08:00;;;;;;;16.23;6.15;;;;;;;-0.23;83.61;99746.32;1751286;81;20873;-71
2021/11/23 05:10:26;;;;;;;24.40;6.45;;;;;;;-0.23;83.59;99745.80;1693974;84;20912;-71
2021/11/23 05:12:53;;;;;;;17.15;6.40;;;;;;;-0.20;83.61;99744.49;1737910;81;21183;-70
2021/11/23 05:15:20;;;;;;;34.00;10.43;;;;;;;-0.19;83.56;99740.20;1744881;81;21019;-69
2021/11/23 05:17:47;;;;;;;31.57;8.88;;;;;;;-0.18;83.56;99739.14;1693469;84;20864;-70
2021/11/23 05:20:14;;;;;;;20.57;7.33;;;;;;;-0.18;83.63;99735.09;1692000;84;20955;-70
2021/11/23 05:22:41;;;;;;;35.60;13.85;;;;;;;-0.15;83.57;99737.31;1753797;81;21026;-70
2021/11/23 05:25:09;;;;;;;32.45;10.93;;;;;;;-0.15;83.49;99735.97;1753793;81;21159;-69
2021/11/23 05:27:35;;;;;;;14.20;6.25;;;;;;;-0.18;83.48;99739.14;1747588;81;21428;-70
2021/11/23 05:30:03;;;;;;;16.67;6.20;;;;;;;-0.20;83.69;99743.14;1751688;81;21608;-69
2021/11/23 05:32:30;;;;;;;12.20;5.05;;;;;;;-0.25;83.75;99739.81;1749597;81;21035;-69
2021/11/23 05:34:57;;;;;;;11.97;5.53;;;;;;;-0.33;83.77;99734.80;1658115;85;20944;-68
2021/11/23 05:37:24;;;;;;;12.10;5.33;;;;;;;-0.44;83.73;99728.91;1723696;83;21098;-70
2021/11/23 05:39:52;;;;;;;14.98;6.22;;;;;;;-0.56;84.23;99732.17;1723871;81;20963;-69
2021/11/23 05:42:18;;;;;;;17.15;5.72;;;;;;;-0.63;84.39;99736.91;1723667;83;20972;-69
2021/11/23 05:44:45;;;;;;;13.00;5.37;;;;;;;-0.70;84.49;99748.64;1718246;81;21751;-70
2021/11/23 05:47:12;;;;;;;11.70;4.87;;;;;;;-0.72;84.78;99752.62;1692983;84;20964;-69
2021/11/23 05:49:38;;;;;;;12.73;6.00;;;;;;;-0.74;85.09;99765.00;1688388;83;21072;-68
2021/11/23 05:52:07;;;;;;;24.35;7.15;;;;;;;-0.76;85.59;99772.50;1722146;81;21217;-68
2021/11/23 05:54:34;;;;;;;19.85;7.10;;;;;;;-0.81;85.58;99787.21;1721962;81;20935;-69
2021/11/23 05:57:01;;;;;;;17.32;7.33;;;;;;;-0.86;85.49;99785.75;1719120;81;21015;-68
2021/11/23 05:59:28;;;;;;;17.17;7.53;;;;;;;-0.93;85.21;99790.44;1723836;83;20904;-68
2021/11/23 06:01:55;;;;;;;23.25;7.05;;;;;;;-0.98;85.30;99794.36;1722432;81;21783;-68
2021/11/23 06:04:21;;;;;;;37.55;12.13;;;;;;;-1.03;85.63;99795.59;1721770;81;20992;-70
2021/11/23 06:06:49;;;;;;;57.45;18.42;;;;;;;-1.03;86.53;99798.28;1720194;81;20907;-70
2021/11/23 06:09:16;;;;;;;79.60;26.68;;;;;;;-0.95;87.25;99810.06;1719684;81;21030;-70
2021/11/23 06:11:42;;;;;;;58.23;22.25;;;;;;;-0.91;87.24;99812.59;1723671;83;20975;-70
2021/11/23 06:14:09;;;;;;;46.83;20.12;;;;;;;-0.85;87.43;99813.52;1714947;81;21146;-69
2021/11/23 06:16:37;;;;;;;45.67;16.50;;;;;;;-0.76;87.75;99814.28;1721689;81;20948;-69
2021/11/23 06:19:03;;;;;;;31.40;14.65;;;;;;;-0.68;87.93;99813.92;1723619;83;20998;-68
2021/11/23 06:21:31;;;;;;;28.57;11.83;;;;;;;-0.62;88.14;99821.60;1732940;82;20955;-68
2021/11/23 06:23:59;;;;;;;25.95;9.48;;;;;;;-0.59;88.25;99827.88;1687987;83;20959;-71
2021/11/23 06:26:25;;;;;;;19.05;8.15;;;;;;;-0.54;89.56;99828.48;1704767;82;21853;-68
2021/11/23 06:28:52;;;;;;;17.05;7.35;;;;;;;-0.45;89.26;99825.72;1694767;83;21497;-69
2021/11/23 06:31:18;;;;;;;15.83;6.58;;;;;;;-0.42;88.77;99823.37;1693412;83;20944;-70
2021/11/23 06:33:46;;;;;;;12.40;5.70;;;;;;;-0.38;88.53;99827.23;1689522;83;21466;-70
2021/11/23 06:36:12;;;;;;;13.40;5.92;;;;;;;-0.36;88.30;99825.12;1703402;81;21003;-72
2021/11/23 06:38:39;;;;;;;13.70;5.85;;;;;;;-0.34;88.79;99840.53;1692749;83;21155;-70
2021/11/23 06:41:06;;;;;;;19.52;6.75;;;;;;;-0.27;88.63;99836.36;1685980;83;20900;-71
2021/11/23 06:43:32;;;;;;;14.05;7.20;;;;;;;-0.26;88.39;99847.45;1694930;84;20996;-70
2021/11/23 06:45:59;;;;;;;20.45;6.95;;;;;;;-0.26;88.39;99849.33;1701729;83;20887;-70
2021/11/23 06:48:25;;;;;;;22.50;9.18;;;;;;;-0.24;88.58;99853.42;1698015;83;20912;-70
2021/11/23 06:50:53;;;;;;;28.55;10.98;;;;;;;-0.19;88.76;99858.92;1680381;85;21827;-72
2021/11/23 06:53:20;;;;;;;29.72;10.70;;;;;;;-0.18;88.70;99854.35;1690794;83;21605;-72
2021/11/23 06:55:47;;;;;;;22.55;6.90;;;;;;;-0.13;88.64;99857.16;1699990;83;21514;-70
2021/11/23 06:58:14;;;;;;;17.73;6.80;;;;;;;-0.11;88.35;99851.81;1695247;84;20955;-70
2021/11/23 07:00:41;;;;;;;15.25;6.20;;;;;;;-0.10;88.10;99852.11;1695376;84;21529;-72
2021/11/23 07:03:08;;;;;;;15.28;5.65;;;;;;;-0.10;87.92;99856.16;1710120;83;21864;-70
2021/11/23 07:05:35;;;;;;;15.63;5.50;;;;;;;-0.08;88.24;99857.27;1713117;81;21565;-70
2021/11/23 07:08:03;;;;;;;13.85;4.92;;;;;;;-0.05;88.38;99863.53;1724635;81;20943;-70
2021/11/23 07:10:32;;;;;;;10.70;5.22;;;;;;;-0.02;88.21;99863.87;1717022;81;21056;-70
2021/11/23 07:13:00;;;;;;;17.60;5.80;;;;;;;0.00;87.62;99852.84;1715118;83;20943;-67
2021/11/23 07:15:27;;;;;;;14.53;6.78;;;;;;;0.01;88.21;99859.85;1700185;83;21167;-70
2021/11/23 07:17:54;;;;;;;19.07;8.85;;;;;;;0.03;87.56;99844.77;1692057;83;21555;-69
2021/11/23 07:20:21;;;;;;;33.95;16.93;;;;;;;0.06;87.61;99849.69;1694919;81;21527;-69
2021/11/23 07:22:48;;;;;;;30.55;7.45;;;;;;;0.13;87.51;99839.57;1695237;83;21031;-69
2021/11/23 07:25:15;;;;;;;18.32;6.12;;;;;;;0.20;87.05;99840.25;1710905;81;21129;-73
2021/11/23 07:27:43;;;;;;;12.90;5.08;;;;;;;0.29;88.05;99848.25;1697840;81;21125;-70
2021/11/23 07:30:13;;;;;;;13.22;4.33;;;;;;;0.42;87.58;99852.02;1706805;83;20991;-68
2021/11/23 07:32:41;;;;;;;11.55;4.75;;;;;;;0.58;86.69;99857.96;1704532;82;21538;-70
2021/11/23 07:35:09;;;;;;;19.07;7.83;;;;;;;1.09;87.38;99858.84;1713787;82;20976;-68
2021/11/23 07:37:41;;;;;;;15.90;8.23;;;;;;;1.83;86.19;99857.98;1718622;82;21549;-70
2021/11/23 07:40:09;;;;;;;16.67;6.10;;;;;;;2.46;83.66;99843.52;1711927;82;21168;-70
2021/11/23 07:42:38;;;;;;;34.67;15.53;;;;;;;2.94;81.38;99846.67;1710977;82;20999;-70
2021/11/23 07:45:07;;;;;;;43.55;17.80;;;;;;;3.54;79.03;99837.31;1714426;82;20920;-67
2021/11/23 07:47:36;;;;;;;20.20;8.98;;;;;;;4.17;75.79;99834.06;1693037;83;20991;-68
2021/11/23 07:50:04;;;;;;;9.20;4.47;;;;;;;4.70;71.37;99833.36;1686796;84;21126;-68
2021/11/23 07:52:30;;;;;;;27.70;11.38;;;;;;;4.94;70.50;99838.02;1688970;83;21154;-72
2021/11/23 07:54:58;;;;;;;56.77;23.15;;;;;;;5.20;68.84;99840.16;1691672;83;21039;-67
2021/11/23 07:57:24;;;;;;;17.42;8.08;;;;;;;5.46;66.31;99837.41;1691266;84;21011;-68
2021/11/23 07:59:51;;;;;;;8.58;3.52;;;;;;;5.73;65.21;99846.08;1688513;83;21078;-67
2021/11/23 08:02:18;;;;;;;7.62;3.50;;;;;;;6.03;63.27;99842.98;1693077;84;21102;-67
2021/11/23 08:04:45;;;;;;;6.20;3.22;;;;;;;6.24;62.62;99845.36;1724696;82;21107;-67
2021/11/23 08:07:11;;;;;;;6.58;2.80;;;;;;;6.33;60.09;99843.41;1731351;82;21516;-67
2021/11/23 08:09:37;;;;;;;13.30;3.47;;;;;;;6.51;60.06;99838.10;1682492;83;21443;-66
2021/11/23 08:12:06;;;;;;;23.12;8.45;;;;;;;6.79;58.54;99833.02;1687910;83;20967;-67
2021/11/23 08:14:33;;;;;;;17.40;5.42;;;;;;;7.01;57.83;99829.83;1711401;83;20959;-66
2021/11/23 08:17:01;;;;;;;9.15;3.17;;;;;;;7.22;55.58;99827.20;1694551;83;21747;-66
2021/11/23 08:19:29;;;;;;;6.15;2.80;;;;;;;7.39;55.38;99834.97;1689584;83;21440;-68
2021/11/23 08:21:56;;;;;;;5.87;2.60;;;;;;;7.59;54.58;99836.92;1681873;83;20920;-67
2021/11/23 08:24:22;;;;;;;13.20;3.98;;;;;;;7.83;54.50;99838.30;1693641;84;20999;-66
2021/11/23 08:26:49;;;;;;;5.60;3.17;;;;;;;8.16;52.35;99827.51;1694525;84;21102;-68
2021/11/23 08:29:16;;;;;;;4.87;2.00;;;;;;;8.36;51.26;99835.48;1692712;83;21159;-66
2021/11/23 08:31:43;;;;;;;4.12;1.80;;;;;;;8.46;49.53;99836.72;1694755;84;21561;-67
2021/11/23 08:34:11;;;;;;;6.95;3.10;;;;;;;8.50;49.51;99828.18;1696992;83;20915;-67
2021/11/23 08:36:38;;;;;;;3.05;1.87;;;;;;;8.55;49.80;99822.64;1706015;82;20903;-68
2021/11/23 08:39:06;;;;;;;5.90;3.00;;;;;;;8.69;49.22;99816.39;1714440;82;20903;-70
2021/11/23 08:41:32;;;;;;;4.00;1.92;;;;;;;8.75;48.75;99809.73;1708297;82;21153;-70
2021/11/23 08:44:00;;;;;;;25.25;13.58;;;;;;;8.90;47.23;99810.87;1722932;81;20951;-68
2021/11/23 08:46:27;;;;;;;9.55;5.00;;;;;;;8.91;47.84;99813.86;1721819;81;20913;-68
2021/11/23 08:48:54;;;;;;;14.45;8.88;;;;;;;9.00;47.77;99809.34;1724168;83;20959;-69
2021/11/23 08:51:27;;;;;;;5.87;2.92;;;;;;;9.18;47.96;99803.01;1723765;83;21538;-68
2021/11/23 08:53:52;;;;;;;288.62;162.88;;;;;;;9.24;45.15;99801.78;1721434;82;21111;-67
2021/11/23 08:56:19;;;;;;;49.08;29.20;;;;;;;9.08;46.42;99807.29;1723808;83;20916;-67
2021/11/23 08:58:51;;;;;;;127.07;63.28;;;;;;;9.08;46.21;99810.03;1724694;81;20911;-68
2021/11/23 09:01:14;;;;;;;110.68;56.45;;;;;;;9.21;45.82;99807.08;1716002;81;20947;-67
2021/11/23 09:03:41;;;;;;;606.73;395.48;;;;;;;8.83;46.52;99800.84;1713669;82;21561;-68
2021/11/23 09:06:08;;;;;;;659.92;449.52;;;;;;;8.17;47.51;99805.89;1698056;83;23158;-69
2021/11/23 09:08:46;;;;;;;18.75;13.00;;;;;;;7.85;48.23;99801.12;1710351;83;21004;-67
2021/11/23 09:11:12;;;;;;;12.23;6.55;;;;;;;7.79;47.72;99800.91;1726013;82;20948;-68
2021/11/23 09:13:38;;;;;;;21.77;14.33;;;;;;;7.93;49.03;99801.29;1721771;81;20889;-68
2021/11/23 09:16:06;;;;;;;19.65;13.88;;;;;;;8.26;48.02;99794.56;1724853;81;20928;-68
2021/11/23 09:18:34;;;;;;;91.30;60.05;;;;;;;8.45;47.11;99796.78;1726210;81;21674;-68
2021/11/23 09:21:00;;;;;;;52.45;35.52;;;;;;;8.40;46.37;99794.67;1733795;81;21030;-67
2021/11/23 09:23:28;;;;;;;65.03;46.63;;;;;;;8.06;47.27;99797.59;1706757;81;20967;-68
2021/11/23 09:25:54;;;;;;;416.02;288.05;;;;;;;7.65;48.15;99796.70;1710239;82;21043;-68
2021/11/23 09:28:21;;;;;;;60.03;38.08;;;;;;;7.33;49.76;99797.33;1709595;83;21054;-69
2021/11/23 09:30:48;;;;;;;27.98;18.35;;;;;;;7.03;49.01;99801.70;1706289;82;21111;-71
2021/11/23 09:33:17;;;;;;;10.03;6.58;;;;;;;6.69;50.12;99798.44;1720345;82;20908;-68
2021/11/23 09:35:44;;;;;;;8.65;5.37;;;;;;;6.41;50.05;99806.80;1711227;83;20924;-70
2021/11/23 09:38:11;;;;;;;20.10;13.32;;;;;;;6.07;50.64;99807.27;1716890;81;21573;-69
2021/11/23 09:40:38;;;;;;;6.30;2.80;;;;;;;5.68;52.58;99808.50;1716743;83;20876;-70
2021/11/23 09:43:05;;;;;;;12.70;8.30;;;;;;;5.38;52.56;99808.02;1727880;81;22139;-70
2021/11/23 09:45:32;;;;;;;3.90;2.30;;;;;;;5.05;53.31;99796.66;1726753;82;21495;-69
2021/11/23 09:48:05;;;;;;;4.10;2.60;;;;;;;4.81;54.31;99795.02;1739825;82;20868;-69
2021/11/23 09:50:31;;;;;;;5.20;2.67;;;;;;;4.75;55.39;99792.57;1740048;82;20960;-69
2021/11/23 09:52:58;;;;;;;20.10;10.98;;;;;;;4.69;54.97;99781.42;1720716;81;20943;-71
2021/11/23 09:55:25;;;;;;;5.20;3.12;;;;;;;4.66;55.35;99782.77;1717268;82;21132;-70
2021/11/23 09:57:52;;;;;;;4.53;2.50;;;;;;;4.63;55.30;99771.89;1714520;83;20942;-70
2021/11/23 10:00:45;;;;;;;6.05;3.08;;;;;;;4.69;55.94;99771.90;1714521;83;20897;-70
2021/11/23 10:03:18;;;;;;;4.47;3.50;;;;;;;5.22;55.48;99769.94;1715606;83;21476;-72
2021/11/23 10:05:45;;;;;;;4.60;2.87;;;;;;;6.14;54.71;99759.53;1714888;83;20927;-68
2021/11/23 10:08:15;;;;;;;14.78;9.40;;;;;;;6.91;51.89;99747.52;1717902;83;21101;-69
2021/11/23 10:10:52;;;;;;;5.20;2.95;;;;;;;7.52;49.53;99749.58;1719081;83;20995;-70
2021/11/23 10:13:20;;;;;;;10.25;5.03;;;;;;;8.13;48.99;99753.70;1718850;82;20983;-70
2021/11/23 10:15:50;;;;;;;6.05;4.03;;;;;;;8.79;47.85;99748.63;1719496;83;21494;-70
2021/11/23 10:18:23;;;;;;;7.50;2.30;;;;;;;9.03;46.60;99747.13;1719634;83;20995;-70
2021/11/23 10:20:55;;;;;;;;;;;;;;;8.85;44.60;99748.80;1720692;83;21881;-71
2021/11/23 10:23:35;;;;;;;4.33;2.03;;;;;;;8.23;45.07;99743.19;1718518;83;20113;-72
2021/11/23 10:26:15;;;;;;;6.15;3.00;;;;;;;7.63;46.75;99736.06;1719287;83;20907;-70
2021/11/23 10:28:57;;;;;;;4.33;2.10;;;;;;;7.43;48.26;99745.33;1719155;83;21006;-70
2021/11/23 10:31:40;;;;;;;10.23;3.95;;;;;;;7.58;48.44;99734.75;1710245;81;21043;-68
2021/11/23 10:34:13;;;;;;;7.03;2.77;;;;;;;7.81;48.54;99737.21;1693954;83;21175;-71
2021/11/23 10:36:44;;;;;;;6.17;1.75;;;;;;;7.84;47.83;99727.88;1668110;83;21054;-69
2021/11/23 10:39:17;;;;;;;6.47;2.58;;;;;;;7.58;48.19;99728.73;1695670;84;20959;-68
2021/11/23 10:41:51;;;;;;;3.40;2.02;;;;;;;7.41;48.77;99727.05;1689708;83;21078;-69
2021/11/23 10:44:25;;;;;;;2.75;1.50;;;;;;;7.43;48.52;99727.58;1694357;83;20923;-69
2021/11/23 10:46:57;;;;;;;3.67;1.90;;;;;;;7.62;48.13;99714.75;1694857;84;21154;-69
2021/11/23 10:49:42;;;;;;;2.90;1.72;;;;;;;7.92;48.15;99714.11;1687397;83;21486;-69
2021/11/23 10:52:05;;;;;;;3.72;1.80;;;;;;;8.12;48.38;99710.25;1700156;84;20855;-69
2021/11/23 10:54:33;;;;;;;6.72;2.60;;;;;;;8.33;47.55;99707.51;1692894;83;21019;-72
2021/11/23 10:57:07;;;;;;;6.53;3.40;;;;;;;8.31;47.72;99702.05;1688507;83;21138;-70
2021/11/23 10:59:36;;;;;;;7.95;4.12;;;;;;;8.26;47.54;99705.67;1695336;83;21147;-70
2021/11/23 11:02:02;;;;;;;9.95;4.42;;;;;;;8.08;47.82;99706.52;1668049;84;20959;-70
2021/11/23 11:04:33;;;;;;;14.38;6.30;;;;;;;7.72;48.24;99698.78;1697652;83;20959;-70
2021/11/23 11:07:03;;;;;;;7.30;3.42;;;;;;;7.30;49.19;99699.59;1666720;85;21031;-70
2021/11/23 11:09:31;;;;;;;3.98;2.58;;;;;;;7.33;50.06;99695.47;1683650;83;20999;-70
2021/11/23 11:11:58;;;;;;;3.70;2.47;;;;;;;7.61;49.74;99688.54;1693641;83;21211;-68
2021/11/23 11:14:25;;;;;;;4.30;2.58;;;;;;;8.17;49.75;99675.44;1682674;83;21004;-67
2021/11/23 11:16:53;;;;;;;6.83;2.80;;;;;;;8.73;48.04;99678.66;1691283;83;21456;-67
2021/11/23 11:19:21;;;;;;;3.17;2.10;;;;;;;8.79;46.78;99673.91;1694654;84;20968;-67
2021/11/23 11:21:53;;;;;;;3.52;2.00;;;;;;;8.59;47.08;99677.27;1689975;83;20972;-67
2021/11/23 11:27:36;;;;;;;5.50;1.80;;;;;;;8.23;47.13;99672.89;1695172;84;20963;-68
2021/11/23 11:30:37;;;;;;;3.92;1.80;;;;;;;7.86;47.27;99665.53;1686238;83;20953;-68
2021/11/23 11:33:12;;;;;;;2.55;1.85;;;;;;;7.29;47.54;99667.38;1696811;81;21007;-68
2021/11/23 11:35:49;;;;;;;3.00;1.70;;;;;;;6.60;48.29;99674.11;1651133;85;21018;-69
2021/11/23 11:38:36;;;;;;;2.70;1.80;;;;;;;6.21;49.36;99676.08;1659956;84;21099;-67
2021/11/23 11:41:04;;;;;;;6.08;1.82;;;;;;;5.82;50.91;99667.30;1672723;85;20889;-69